createdAt,value
2018-08-12T00:02:03.077Z,66.00
2018-08-12T00:06:57.760Z,66.97
2018-08-12T00:11:52.482Z,64.14
2018-08-12T00:16:47.207Z,65.62
2018-08-12T00:21:42.557Z,64.13
2018-08-12T00:26:37.195Z,65.14
2018-08-12T00:31:31.807Z,64.49
2018-08-12T00:36:26.488Z,65.98
2018-08-12T00:41:21.146Z,64.98
2018-08-12T00:46:15.838Z,65.96
2018-08-12T00:51:10.518Z,64.68
2018-08-12T00:56:05.258Z,67.18
2018-08-12T01:00:59.970Z,66.85
2018-08-12T01:05:54.696Z,67.37
2018-08-12T01:10:49.418Z,66.25
2018-08-12T01:15:44.075Z,68.09
2018-08-12T01:20:38.870Z,66.35
2018-08-12T01:25:33.607Z,68.27
2018-08-12T01:30:28.353Z,67.96
2018-08-12T01:35:23.326Z,66.97
2018-08-12T01:40:18.842Z,67.04
2018-08-12T01:50:00.376Z,68.35
2018-08-12T01:54:55.287Z,66.99
2018-08-12T01:59:49.933Z,67.64
2018-08-12T02:04:44.595Z,67.96
2018-08-12T02:09:39.239Z,67.86
2018-08-12T02:14:33.897Z,69.34
2018-08-12T02:19:28.535Z,68.79
2018-08-12T02:24:23.215Z,67.91
2018-08-12T02:29:17.889Z,68.28
2018-08-12T02:34:12.616Z,67.70
2018-08-12T02:39:10.608Z,67.97
2018-08-12T02:44:05.635Z,67.69
2018-08-12T02:49:00.296Z,66.94
2018-08-12T02:53:54.991Z,69.58
2018-08-12T02:58:49.670Z,67.16
2018-08-12T03:03:44.590Z,69.97
2018-08-12T03:08:39.178Z,69.42
2018-08-12T03:13:33.868Z,67.05
2018-08-12T03:18:28.533Z,68.37
2018-08-12T03:23:23.208Z,67.28
2018-08-12T03:28:17.891Z,68.52
2018-08-12T03:33:12.544Z,69.08
2018-08-12T03:38:07.667Z,68.32
2018-08-12T03:43:02.297Z,69.04
2018-08-12T03:47:57.286Z,68.43
2018-08-12T03:52:52.010Z,69.22
2018-08-12T03:57:46.716Z,68.04
2018-08-12T04:02:41.437Z,69.98
2018-08-12T04:07:36.089Z,68.58
2018-08-12T04:12:30.799Z,68.87
2018-08-12T04:17:25.461Z,69.45
2018-08-12T04:22:20.080Z,68.44
2018-08-12T04:27:14.707Z,69.43
2018-08-12T04:32:09.875Z,68.27
2018-08-12T04:37:04.517Z,69.32
2018-08-12T04:41:59.244Z,69.31
2018-08-12T04:46:53.856Z,69.56
2018-08-12T04:51:48.497Z,68.14
2018-08-12T04:56:43.162Z,66.40
2018-08-12T05:01:37.811Z,62.72
2018-08-12T05:06:32.582Z,62.83
2018-08-12T05:11:27.377Z,62.01
2018-08-12T05:16:22.115Z,63.79
2018-08-12T05:21:16.737Z,63.09
2018-08-12T05:26:11.399Z,63.58
2018-08-12T05:31:06.225Z,64.19
2018-08-12T05:36:00.797Z,65.29
2018-08-12T05:40:55.423Z,65.34
2018-08-12T05:45:50.031Z,65.80
2018-08-12T05:50:44.680Z,66.81
2018-08-12T05:55:39.396Z,67.05
2018-08-12T06:00:34.057Z,66.84
2018-08-12T06:05:28.719Z,67.12
2018-08-12T06:10:23.393Z,69.71
2018-08-12T06:15:18.956Z,68.81
2018-08-12T06:20:13.970Z,68.82
2018-08-12T06:25:10.025Z,67.96
2018-08-12T06:30:07.963Z,65.57
2018-08-12T06:35:03.255Z,65.12
2018-08-12T06:39:57.963Z,63.61
2018-08-12T06:44:52.619Z,63.55
2018-08-12T06:49:47.269Z,62.43
2018-08-12T06:54:41.987Z,62.16
2018-08-12T06:59:36.649Z,61.80
2018-08-12T07:04:31.316Z,58.90
2018-08-12T07:09:26.250Z,59.69
2018-08-12T07:14:20.922Z,57.62
2018-08-12T07:19:15.708Z,58.25
2018-08-12T07:24:10.384Z,54.67
2018-08-12T07:29:05.097Z,54.26
2018-08-12T07:33:59.865Z,54.44
2018-08-12T07:38:54.723Z,51.94
2018-08-12T07:43:49.411Z,50.82
2018-08-12T07:48:44.094Z,50.34
2018-08-12T07:53:38.792Z,47.35
2018-08-12T07:58:33.469Z,47.95
2018-08-12T08:03:28.209Z,46.15
2018-08-12T08:08:23.020Z,48.17
2018-08-12T08:13:17.881Z,47.68
2018-08-12T08:18:14.080Z,48.15
2018-08-12T08:23:08.781Z,48.03
2018-08-12T08:28:03.632Z,45.71
2018-08-12T08:32:58.383Z,46.99
2018-08-12T08:37:53.142Z,46.38
2018-08-12T08:42:47.971Z,46.69
2018-08-12T08:47:43.620Z,45.57
2018-08-12T08:52:38.931Z,46.22
2018-08-12T08:57:33.712Z,46.17
2018-08-12T09:02:28.623Z,44.16
2018-08-12T09:07:23.290Z,45.45
2018-08-12T09:12:17.948Z,43.30
2018-08-12T09:17:12.702Z,43.88
2018-08-12T09:22:07.363Z,43.67
2018-08-12T09:27:02.182Z,42.30
2018-08-12T09:31:56.943Z,42.36
2018-08-12T09:36:51.800Z,40.93
2018-08-12T09:41:46.461Z,42.32
2018-08-12T09:46:41.472Z,42.83
2018-08-12T09:51:36.503Z,43.75
2018-08-12T09:56:31.364Z,40.65
2018-08-12T10:01:26.857Z,42.97
2018-08-12T10:06:21.651Z,41.49
2018-08-12T10:11:16.404Z,40.51
2018-08-12T10:16:11.195Z,40.33
2018-08-12T10:21:06.010Z,39.76
2018-08-12T10:26:00.630Z,38.55
2018-08-12T10:30:55.327Z,40.04
2018-08-12T10:35:50.018Z,39.72
2018-08-12T10:40:44.705Z,38.48
2018-08-12T10:45:39.476Z,39.33
2018-08-12T10:50:34.223Z,37.15
2018-08-12T10:55:29.353Z,38.09
2018-08-12T11:00:26.810Z,38.25
2018-08-12T11:05:21.556Z,38.08
2018-08-12T11:10:16.623Z,37.51
2018-08-12T11:15:11.522Z,38.05
2018-08-12T11:20:06.899Z,38.51
2018-08-12T11:25:01.523Z,34.83
2018-08-12T11:29:56.281Z,34.18
2018-08-12T11:34:50.981Z,36.16
2018-08-12T11:39:45.534Z,35.63
2018-08-12T11:44:40.275Z,32.58
2018-08-12T11:49:34.895Z,34.92
2018-08-12T11:54:29.747Z,34.63
2018-08-12T11:59:24.408Z,35.83
2018-08-12T12:04:20.113Z,34.20
2018-08-12T12:09:14.699Z,34.17
2018-08-12T12:14:09.367Z,34.31
2018-08-12T12:19:04.250Z,35.72
2018-08-12T12:23:58.988Z,35.36
2018-08-12T12:28:53.658Z,35.05
2018-08-12T12:33:48.367Z,36.18
2018-08-12T12:38:43.046Z,35.80
2018-08-12T12:43:37.629Z,35.57
2018-08-12T12:48:32.347Z,35.51
2018-08-12T12:53:27.057Z,36.58
2018-08-12T12:58:21.673Z,38.52
2018-08-12T13:03:16.303Z,39.17
2018-08-12T13:08:10.949Z,38.42
2018-08-12T13:13:05.595Z,39.32
2018-08-12T13:18:00.233Z,38.35
2018-08-12T13:22:54.858Z,38.01
2018-08-12T13:27:49.491Z,38.04
2018-08-12T13:32:45.147Z,37.53
2018-08-12T13:37:39.798Z,39.63
2018-08-12T13:42:34.511Z,39.51
2018-08-12T13:47:29.474Z,40.25
2018-08-12T13:52:24.145Z,37.96
2018-08-12T13:57:18.804Z,38.58
2018-08-12T14:02:13.859Z,38.98
2018-08-12T14:07:08.597Z,39.15
2018-08-12T14:12:03.267Z,38.90
2018-08-12T14:16:58.100Z,39.79
2018-08-12T14:21:52.826Z,38.51
2018-08-12T14:26:47.514Z,40.08
2018-08-12T14:31:42.142Z,40.40
2018-08-12T14:36:36.823Z,41.01
2018-08-12T14:41:31.534Z,40.42
2018-08-12T14:46:29.242Z,41.78
2018-08-12T14:51:23.904Z,41.43
2018-08-12T14:56:18.610Z,40.65
2018-08-12T15:01:13.260Z,38.70
2018-08-12T15:06:07.998Z,39.11
2018-08-12T15:11:02.767Z,39.87
2018-08-12T15:15:57.380Z,39.46
2018-08-12T15:20:52.010Z,40.25
2018-08-12T15:25:46.665Z,39.73
2018-08-12T15:30:41.300Z,39.27
2018-08-12T15:35:35.982Z,38.60
2018-08-12T15:40:30.652Z,40.22
2018-08-12T15:50:27.231Z,38.50
2018-08-12T15:55:21.989Z,39.32
2018-08-12T16:00:20.491Z,40.03
2018-08-12T16:05:15.230Z,40.32
2018-08-12T16:10:17.986Z,42.03
2018-08-12T16:15:13.194Z,40.90
2018-08-12T16:20:08.739Z,40.53
2018-08-12T16:25:03.451Z,41.34
2018-08-12T16:29:58.145Z,42.02
2018-08-12T16:34:52.747Z,41.56
2018-08-12T16:39:47.369Z,42.82
2018-08-12T16:44:42.011Z,43.73
2018-08-12T16:49:36.612Z,43.86
2018-08-12T16:54:31.212Z,43.93
2018-08-12T16:59:25.837Z,44.88
2018-08-12T17:04:20.785Z,43.82
2018-08-12T17:09:15.288Z,43.33
2018-08-12T17:14:09.958Z,43.30
2018-08-12T17:19:04.662Z,44.15
2018-08-12T17:23:59.305Z,44.89
2018-08-12T17:28:54.217Z,43.32
2018-08-12T17:33:48.858Z,44.52
2018-08-12T17:38:43.475Z,42.11
2018-08-12T17:43:38.119Z,42.05
2018-08-12T17:48:32.770Z,43.45
2018-08-12T17:53:27.436Z,44.46
2018-08-12T17:58:22.496Z,43.78
2018-08-12T18:03:17.283Z,43.42
2018-08-12T18:08:12.036Z,45.27
2018-08-12T18:13:06.689Z,45.45
2018-08-12T18:18:01.536Z,44.91
2018-08-12T18:22:56.250Z,45.23
2018-08-12T18:27:51.830Z,46.47
2018-08-12T18:32:46.588Z,47.18
2018-08-12T18:37:41.616Z,47.05
2018-08-12T18:42:36.619Z,48.28
2018-08-12T18:47:31.395Z,50.54
2018-08-12T18:52:26.608Z,52.11
2018-08-12T18:57:22.332Z,52.00
2018-08-12T19:02:17.090Z,53.36
2018-08-12T19:07:12.753Z,54.45
2018-08-12T19:12:08.876Z,55.54
2018-08-12T19:17:04.791Z,56.70
2018-08-12T19:21:59.592Z,56.55
2018-08-12T19:26:54.448Z,58.21
2018-08-12T19:31:49.067Z,58.02
2018-08-12T19:36:43.838Z,58.46
2018-08-12T19:41:38.468Z,57.58
2018-08-12T19:46:33.223Z,57.40
2018-08-12T19:51:27.817Z,57.90
2018-08-12T19:56:22.378Z,57.08
2018-08-12T20:01:17.019Z,57.48
2018-08-12T20:06:11.701Z,59.72
2018-08-12T20:11:06.350Z,59.50
2018-08-12T20:16:00.977Z,60.59
2018-08-12T20:20:55.631Z,60.53
2018-08-12T20:25:50.278Z,60.41
2018-08-12T20:30:44.913Z,61.19
2018-08-12T20:35:39.536Z,61.29
2018-08-12T20:40:34.230Z,61.87
2018-08-12T20:45:28.932Z,62.44
2018-08-12T20:50:23.521Z,62.52
2018-08-12T20:55:18.149Z,61.13
2018-08-12T21:00:12.887Z,61.91
2018-08-12T21:05:08.451Z,60.62
2018-08-12T21:10:03.213Z,62.01
2018-08-12T21:14:57.913Z,61.69
2018-08-12T21:19:52.620Z,62.48
2018-08-12T21:24:47.332Z,63.07
2018-08-12T21:29:41.960Z,63.71
2018-08-12T21:34:36.664Z,62.94
2018-08-12T21:39:31.318Z,62.93
2018-08-12T21:44:26.020Z,65.33
2018-08-12T21:49:20.610Z,65.48
2018-08-12T21:54:15.381Z,64.97
2018-08-12T21:59:10.100Z,66.10
2018-08-12T22:04:04.879Z,66.07
2018-08-12T22:08:59.542Z,66.35
2018-08-12T22:13:54.196Z,65.53
2018-08-12T22:18:48.856Z,66.34
2018-08-12T22:23:43.659Z,65.50
2018-08-12T22:28:38.287Z,65.33
2018-08-12T22:33:33.150Z,65.59
2018-08-12T22:38:27.953Z,64.56
2018-08-12T22:43:22.713Z,64.95
2018-08-12T22:48:17.425Z,65.23
2018-08-12T22:53:12.122Z,64.73
2018-08-12T22:58:07.110Z,66.54
2018-08-12T23:03:02.145Z,65.98
2018-08-12T23:08:00.879Z,65.62
2018-08-12T23:12:55.533Z,66.01
2018-08-12T23:17:50.235Z,66.10
2018-08-12T23:22:44.946Z,66.43
2018-08-12T23:27:39.614Z,65.87
2018-08-12T23:32:34.323Z,65.47
2018-08-12T23:37:29.011Z,66.41
2018-08-12T23:42:23.706Z,67.65
2018-08-12T23:47:18.329Z,66.90
2018-08-12T23:52:12.962Z,67.20
2018-08-12T23:57:07.624Z,67.27
